Date,TemperatureHighF,TemperatureAvgF,TemperatureLowF,DewpointHighF,DewpointAvgF,DewpointLowF,HumidityHigh,HumidityAvg,HumidityLow,PressureMaxIn,PressureMinIn,WindSpeedMaxMPH,WindSpeedAvgMPH,GustSpeedMaxMPH,PrecipitationSumIn
2013-8-1,83.6,72.4,63.6,67.6,64.5,60.6,95,78,50,29.94,29.86,10,1,11,0.03
2013-8-2,76.1,67.8,57.4,65.1,60.3,55.5,96,78,51,30.01,29.91,12,1,15,0.00
2013-8-3,82.8,70.5,58.9,68.5,62.7,56.3,95,78,49,30.00,29.92,10,1,10,0.20
2013-8-4,77.9,64.9,54.5,61.3,56.6,53.1,96,77,48,30.12,30.00,9,1,9,0.00
2013-8-5,77.0,62.8,51.1,63.4,56.2,49.7,96,81,48,30.16,30.02,7,0,7,0.00
2013-8-6,83.3,68.4,55.7,65.2,59.3,54.4,96,76,45,30.04,29.95,9,0,9,0.00
2013-8-7,83.6,69.6,61.1,74.9,66.5,59.4,96,90,72,29.97,29.89,12,0,12,0.71
2013-8-8,84.6,75.2,69.8,76.1,72.1,68.3,97,90,73,29.96,29.88,11,0,11,0.18
2013-8-9,80.9,71.3,63.2,70.6,67.7,61.4,97,89,59,30.03,29.87,9,0,9,0.19
2013-8-10,83.7,70.4,60.9,71.3,65.1,59.8,96,85,57,30.10,30.03,7,0,7,0.05
2013-8-11,85.3,70.6,60.8,72.6,65.4,59.7,97,85,62,30.12,30.01,4,0,5,0.00
2013-8-12,85.0,71.7,59.6,71.5,65.0,58.5,97,81,54,30.07,29.86,10,0,10,0.04
2013-8-13,78.5,69.8,55.3,70.3,62.9,51.4,96,80,56,30.00,29.79,10,1,12,0.00
2013-8-14,70.2,58.3,50.0,58.0,53.1,48.6,96,84,61,30.18,30.00,8,0,10,0.00
2013-8-15,76.8,59.5,45.6,59.6,51.2,44.4,97,78,41,30.24,30.12,8,0,8,0.01
2013-8-16,80.3,63.9,51.2,61.9,55.3,49.8,96,77,43,30.20,30.14,6,0,7,0.00
2013-8-17,84.5,66.5,54.1,63.9,57.5,52.6,96,76,40,30.24,30.18,7,0,7,0.00
2013-8-18,73.3,66.0,57.7,66.4,62.2,56.1,95,88,76,30.22,30.13,6,0,6,0.00
2013-8-19,82.3,69.8,62.5,67.2,64.2,60.3,96,84,51,30.16,30.08,6,0,6,0.00
2013-8-20,86.3,69.1,56.1,70.5,62.5,55.0,97,82,47,30.20,30.11,7,0,7,0.00
2013-8-21,86.7,70.0,57.7,71.4,64.6,56.6,96,85,50,30.20,30.06,5,0,5,0.00
2013-8-22,82.8,72.7,64.1,73.3,68.1,62.1,95,86,69,30.11,29.98,12,1,12,0.00
2013-8-23,86.8,72.9,61.5,72.0,66.5,56.6,96,82,46,30.17,29.99,5,0,5,0.66
2013-8-24,86.3,67.3,54.0,65.2,57.4,50.6,96,75,33,30.31,30.17,4,0,4,0.00
2013-8-25,84.5,67.8,53.6,67.5,59.5,52.1,96,78,40,30.37,30.24,9,1,9,0.00
2013-8-26,86.0,73.4,60.9,71.6,64.8,57.9,93,76,51,30.27,30.03,11,1,12,0.00
2013-8-27,79.3,73.5,70.1,73.7,70.7,68.1,95,91,82,30.05,29.91,10,0,10,0.27
2013-8-28,84.2,77.4,72.2,76.3,72.9,69.7,95,86,72,29.94,29.82,13,1,13,0.01
2013-8-29,91.0,75.6,67.8,73.3,69.8,66.0,95,83,50,30.04,29.93,5,0,5,0.00
2013-8-30,88.4,74.3,62.2,73.8,67.9,61.0,97,83,54,30.01,29.82,10,1,10,0.00
2013-8-31,87.7,76.6,70.1,76.2,71.0,68.3,95,84,62,29.85,29.70,9,1,16,0.05